Leesburg, FL

2:34 PM EDT on August 20, 2014 (GMT -0400)
Inverness | Change Station
CLOSE
Current Station
Airport
Location: Inverness,
Elevation: 49 ft
Nearby Weather Stations

Elev 49 ft 28.81 °N, 82.32 °W | Updated 19 minutes ago

Scattered Clouds
Scattered Clouds
93 °F
Feels Like 93 °F
N
6
Wind Variable Wind from NNW

Today
High -- | Low -- °F
--% Chance of Precip.
Yesterday
High -- | Low -- °F
Precip. -- in
6:59 AM 8:02 PM
Waning Crescent, 20% visible
Pressure 30.08 in
Visibility 7.0 miles
Clouds Scattered Clouds 5500 ft
Heat Index 93 °F
Dew Point 61 °F
Humidity 34%
Rainfall 0.00 in
Snow Depth Not available.
UV 11 out of 12
Pollen 7.70 out of 12
Air Quality Not available.
Flu Activity Not available.
METAR KINF 201815Z AUTO 33005KT 7SM SCT055 34/16 A3008 RMK AO2 LTG DSNT NE

More Conditions Fewer Conditions

Pressure 30.08 in
Visibility 7.0 miles
Clouds Scattered Clouds 5500 ft
Heat Index 93 °F
Dew Point 61 °F
Humidity 34%
Rainfall 0.00 in
Snow Depth Not available.
UV 11 out of 12
Pollen 7.70 out of 12
Air Quality Not available.
Flu Activity Not available.
METAR KINF 201815Z AUTO 33005KT 7SM SCT055 34/16 A3008 RMK AO2 LTG DSNT NE

More Conditions Fewer Conditions

Nowcast | as of 1:47 PM EDT on August 20, 2014

During the early afternoon the East Coast sea breeze was beginning to move slowly inland across the coastal counties with isolated showers and lightning storms developing inland from the Treasure Coast. Other isolated showers and lightning storms will develop over the interior into late afternoon. Temperatures are expected near 90 at the coast and in the lower to mid 90s over the interior into late afternoon. Additional details...including graphics are available online at: http://www.Srh.NOAA.Gov/mlb/blog.Php

×

10-Day Weather Forecast

Almanac

Astronomy

Aug. 20, 2014 Rise Set
Actual Time 6:59 AM EDT 8:02 PM EDT
Civil Twilight 6:34 AM EDT 8:26 PM EDT
Nautical Twilight 6:05 AM EDT 8:55 PM EDT
Astronomical Twilight 5:35 AM EDT 9:25 PM EDT
Moon 2:46 AM EDT 4:37 PM EDT
Length of Visible Light 13h 51m
Length of Day
13h 02m
Tomorrow will be 1m 34s shorter.
Waning Crescent, 20% of the Moon is Illuminated
Today
Waning Crescent
Aug 25
New
Sep 2
First Quarter
Sep 8
Full
Sep 15
Last Quarter

Today's Extremes

State Highs State Lows

Community

WunderPhotos

Upload Photos

1,745,707 photos uploaded!

WunderBlogs® & News

By Dr. Jeff Masters
Director of Meteorology, Weather Underground
By Kari Strenfel
Meteorologist, Weather Underground
By Christopher C. Burt
Weather Historian, Weather Underground
August 20, 2014
August 20, 2014
August 20, 2014

Nearby

Snow Depth

Station Depth Elevation
No new snow has been reported.

Earthquake Activity

City Distance Mag. Time & Date
No recent earthquake activity has been reported nearby.
Minimum magnitude displayed is 2.5.

Coastal Water Temperatures

Place Temperature
No Stations Reporting

Nearby Weather Stations